KOZR/OZR METAR and TAF weather

Enter ICAO airport designator
Station Type Date Time Source
KOZR METAR 2024/04/15 09:55 UTC NOAA

KOZR 150955Z AUTO 23003KT 10SM CLR 13/11 A3004 RMK AO2 SLP173 T01280105 $


Station Type Date Time Source
KOZR Decoded METAR 2024/04/15 09:55 UTC NOAA

Cairns Army Air Field / Ozark, AL, United States (KOZR) 31-17N 085-43W
Apr 15, 2024 - 05:55 AM EDT / 2024.04.15 0955 UTC
Wind: from the SW (230 degrees) at 3 MPH (3 KT):0
Visibility: 10 mile(s):0
Sky conditions: clear
Temperature: 55.0 F (12.8 C)
Dew Point: 50.9 F (10.5 C)
Relative Humidity: 85%
Pressure (altimeter): 30.04 in. Hg (1017 hPa)
ob: KOZR 150955Z AUTO 23003KT 10SM CLR 13/11 A3004 RMK AO2 SLP173 T01280105
cycle: 10

Station Type Date Time Source
KOZR TAF 2024/04/15 10:58 UTC NOAA